sensor_id;sensor_type;location;lat;lon;timestamp;pressure;altitude;pressure_sealevel;temperature;humidity
51849;BME280;38952;51.090;-1.832;2024-01-11T00:01:12;101820.91;;;2.44;82.97
51849;BME280;38952;51.090;-1.832;2024-01-11T00:03:38;101826.63;;;2.41;83.15
51849;BME280;38952;51.090;-1.832;2024-01-11T00:06:03;101850.94;;;2.41;83.26
51849;BME280;38952;51.090;-1.832;2024-01-11T00:08:29;101847.44;;;2.32;83.14
51849;BME280;38952;51.090;-1.832;2024-01-11T00:10:55;101837.22;;;2.19;83.08
51849;BME280;38952;51.090;-1.832;2024-01-11T00:13:20;101832.69;;;2.12;83.21
51849;BME280;38952;51.090;-1.832;2024-01-11T00:15:46;101851.44;;;2.05;83.15
51849;BME280;38952;51.090;-1.832;2024-01-11T00:18:11;101849.81;;;1.87;83.25
51849;BME280;38952;51.090;-1.832;2024-01-11T00:20:37;101839.44;;;1.51;83.69
51849;BME280;38952;51.090;-1.832;2024-01-11T00:23:02;101845.69;;;1.35;84.30
51849;BME280;38952;51.090;-1.832;2024-01-11T00:25:28;101843.19;;;1.17;85.00
51849;BME280;38952;51.090;-1.832;2024-01-11T00:27:53;101847.06;;;1.07;85.57
51849;BME280;38952;51.090;-1.832;2024-01-11T00:30:19;101852.94;;;1.02;85.91
51849;BME280;38952;51.090;-1.832;2024-01-11T00:32:44;101864.41;;;1.04;86.08
51849;BME280;38952;51.090;-1.832;2024-01-11T00:35:10;101865.41;;;0.95;86.79
51849;BME280;38952;51.090;-1.832;2024-01-11T00:37:35;101873.50;;;1.03;86.41
51849;BME280;38952;51.090;-1.832;2024-01-11T00:40:01;101852.44;;;0.90;86.55
51849;BME280;38952;51.090;-1.832;2024-01-11T00:42:26;101865.25;;;0.88;86.82
51849;BME280;38952;51.090;-1.832;2024-01-11T00:44:52;101880.22;;;0.82;86.77
51849;BME280;38952;51.090;-1.832;2024-01-11T00:47:17;101870.41;;;0.65;87.42
51849;BME280;38952;51.090;-1.832;2024-01-11T00:49:42;101868.38;;;0.50;87.39
51849;BME280;38952;51.090;-1.832;2024-01-11T00:52:08;101880.13;;;0.49;88.45
51849;BME280;38952;51.090;-1.832;2024-01-11T00:54:35;101884.84;;;0.47;88.90
51849;BME280;38952;51.090;-1.832;2024-01-11T00:57:01;101882.44;;;0.36;88.63
51849;BME280;38952;51.090;-1.832;2024-01-11T00:59:26;101878.38;;;0.24;88.53
51849;BME280;38952;51.090;-1.832;2024-01-11T01:01:52;101872.28;;;0.13;88.85
51849;BME280;38952;51.090;-1.832;2024-01-11T01:04:17;101869.22;;;0.08;89.66
51849;BME280;38952;51.090;-1.832;2024-01-11T01:06:42;101888.41;;;0.13;90.15
51849;BME280;38952;51.090;-1.832;2024-01-11T01:09:08;101863.13;;;-0.02;89.64
51849;BME280;38952;51.090;-1.832;2024-01-11T01:11:34;101873.88;;;-0.02;89.87
51849;BME280;38952;51.090;-1.832;2024-01-11T01:14:00;101867.78;;;-0.12;90.46
51849;BME280;38952;51.090;-1.832;2024-01-11T01:16:25;101895.72;;;-0.05;90.84
51849;BME280;38952;51.090;-1.832;2024-01-11T01:18:51;101898.88;;;-0.10;91.08
51849;BME280;38952;51.090;-1.832;2024-01-11T01:21:16;101898.34;;;-0.13;91.46
51849;BME280;38952;51.090;-1.832;2024-01-11T01:23:41;101904.38;;;-0.20;91.41
51849;BME280;38952;51.090;-1.832;2024-01-11T01:26:07;101904.19;;;-0.26;91.26
51849;BME280;38952;51.090;-1.832;2024-01-11T01:28:32;101912.09;;;-0.25;91.55
51849;BME280;38952;51.090;-1.832;2024-01-11T01:30:58;101918.28;;;-0.24;92.22
51849;BME280;38952;51.090;-1.832;2024-01-11T01:33:23;101902.63;;;-0.29;92.06
51849;BME280;38952;51.090;-1.832;2024-01-11T01:35:49;101910.53;;;-0.27;92.23
51849;BME280;38952;51.090;-1.832;2024-01-11T01:38:14;101912.19;;;-0.34;92.11
51849;BME280;38952;51.090;-1.832;2024-01-11T01:40:40;101919.03;;;-0.40;92.04
51849;BME280;38952;51.090;-1.832;2024-01-11T01:43:08;101925.69;;;-0.44;92.52
51849;BME280;38952;51.090;-1.832;2024-01-11T01:45:34;101920.56;;;-0.56;92.11
51849;BME280;38952;51.090;-1.832;2024-01-11T01:48:00;101920.88;;;-0.59;92.27
51849;BME280;38952;51.090;-1.832;2024-01-11T01:50:26;101921.19;;;-0.62;92.88
51849;BME280;38952;51.090;-1.832;2024-01-11T01:52:52;101935.63;;;-0.63;92.91
51849;BME280;38952;51.090;-1.832;2024-01-11T01:55:18;101939.66;;;-0.67;93.81
51849;BME280;38952;51.090;-1.832;2024-01-11T01:57:45;101936.03;;;-0.76;92.88
51849;BME280;38952;51.090;-1.832;2024-01-11T02:00:12;101942.56;;;-0.78;92.98
51849;BME280;38952;51.090;-1.832;2024-01-11T02:02:43;101937.41;;;-0.90;93.52
51849;BME280;38952;51.090;-1.832;2024-01-11T02:05:09;101947.78;;;-0.95;94.12
51849;BME280;38952;51.090;-1.832;2024-01-11T02:07:36;101965.50;;;-0.84;94.03
51849;BME280;38952;51.090;-1.832;2024-01-11T02:10:02;101957.91;;;-0.89;93.49
51849;BME280;38952;51.090;-1.832;2024-01-11T02:12:29;101975.00;;;-0.90;93.72
51849;BME280;38952;51.090;-1.832;2024-01-11T02:14:54;101975.88;;;-0.89;93.95
51849;BME280;38952;51.090;-1.832;2024-01-11T02:17:20;101981.38;;;-0.91;93.58
51849;BME280;38952;51.090;-1.832;2024-01-11T02:19:46;101976.31;;;-0.94;94.80
51849;BME280;38952;51.090;-1.832;2024-01-11T02:22:34;101981.69;;;-0.94;94.50
51849;BME280;38952;51.090;-1.832;2024-01-11T02:25:00;101990.75;;;-0.95;94.92
51849;BME280;38952;51.090;-1.832;2024-01-11T02:27:26;101982.59;;;-1.03;94.39
51849;BME280;38952;51.090;-1.832;2024-01-11T02:29:51;101992.19;;;-1.00;94.75
51849;BME280;38952;51.090;-1.832;2024-01-11T02:32:17;101987.44;;;-1.07;95.13
51849;BME280;38952;51.090;-1.832;2024-01-11T02:34:43;101995.88;;;-1.01;94.55
51849;BME280;38952;51.090;-1.832;2024-01-11T02:37:08;102002.59;;;-0.88;94.74
51849;BME280;38952;51.090;-1.832;2024-01-11T02:39:34;101994.06;;;-0.83;95.23
51849;BME280;38952;51.090;-1.832;2024-01-11T02:42:00;102007.19;;;-0.62;93.95
51849;BME280;38952;51.090;-1.832;2024-01-11T02:44:26;101993.84;;;-0.54;94.38
51849;BME280;38952;51.090;-1.832;2024-01-11T02:46:51;102006.41;;;-0.36;93.82
51849;BME280;38952;51.090;-1.832;2024-01-11T02:49:17;102014.94;;;-0.23;94.21
51849;BME280;38952;51.090;-1.832;2024-01-11T02:51:42;102009.94;;;-0.17;93.73
51849;BME280;38952;51.090;-1.832;2024-01-11T02:54:08;102014.88;;;-0.05;93.53
51849;BME280;38952;51.090;-1.832;2024-01-11T02:56:33;102028.91;;;0.07;92.88
51849;BME280;38952;51.090;-1.832;2024-01-11T02:58:58;102022.06;;;0.13;93.02
51849;BME280;38952;51.090;-1.832;2024-01-11T03:01:24;102025.66;;;0.22;92.61
51849;BME280;38952;51.090;-1.832;2024-01-11T03:03:49;102025.66;;;0.22;92.71
51849;BME280;38952;51.090;-1.832;2024-01-11T03:06:16;102016.09;;;0.19;91.69
51849;BME280;38952;51.090;-1.832;2024-01-11T03:08:46;102034.63;;;0.30;92.53
51849;BME280;38952;51.090;-1.832;2024-01-11T03:11:12;102028.09;;;0.33;92.17
51849;BME280;38952;51.090;-1.832;2024-01-11T03:13:37;102029.63;;;0.36;92.09
51849;BME280;38952;51.090;-1.832;2024-01-11T03:16:04;102037.22;;;0.40;91.84
51849;BME280;38952;51.090;-1.832;2024-01-11T03:18:30;102043.81;;;0.46;91.44
51849;BME280;38952;51.090;-1.832;2024-01-11T03:20:56;102049.03;;;0.47;92.00
51849;BME280;38952;51.090;-1.832;2024-01-11T03:23:22;102060.31;;;0.51;91.78
51849;BME280;38952;51.090;-1.832;2024-01-11T03:25:49;102060.16;;;0.52;91.66
51849;BME280;38952;51.090;-1.832;2024-01-11T03:28:15;102066.91;;;0.57;92.17
51849;BME280;38952;51.090;-1.832;2024-01-11T03:30:40;102059.72;;;0.57;91.53
51849;BME280;38952;51.090;-1.832;2024-01-11T03:33:06;102070.31;;;0.59;91.32
51849;BME280;38952;51.090;-1.832;2024-01-11T03:35:31;102073.69;;;0.61;91.18
51849;BME280;38952;51.090;-1.832;2024-01-11T03:37:57;102049.53;;;0.43;91.53
51849;BME280;38952;51.090;-1.832;2024-01-11T03:40:22;102076.03;;;0.56;91.92
51849;BME280;38952;51.090;-1.832;2024-01-11T03:42:50;102070.56;;;0.47;91.93
51849;BME280;38952;51.090;-1.832;2024-01-11T03:45:17;102042.69;;;0.30;91.08
51849;BME280;38952;51.090;-1.832;2024-01-11T03:47:44;102082.00;;;0.49;91.61
51849;BME280;38952;51.090;-1.832;2024-01-11T03:50:09;102077.81;;;0.47;91.60
51849;BME280;38952;51.090;-1.832;2024-01-11T03:52:35;102081.34;;;0.47;91.27
51849;BME280;38952;51.090;-1.832;2024-01-11T03:55:00;102090.09;;;0.49;91.83
51849;BME280;38952;51.090;-1.832;2024-01-11T03:57:25;102080.81;;;0.44;91.95
51849;BME280;38952;51.090;-1.832;2024-01-11T03:59:51;102084.72;;;0.49;91.56
51849;BME280;38952;51.090;-1.832;2024-01-11T04:02:16;102078.34;;;0.50;91.92
51849;BME280;38952;51.090;-1.832;2024-01-11T04:04:42;102101.31;;;0.63;91.50
51849;BME280;38952;51.090;-1.832;2024-01-11T04:07:07;102085.00;;;0.64;91.08
51849;BME280;38952;51.090;-1.832;2024-01-11T04:09:33;102085.00;;;0.64;90.73
51849;BME280;38952;51.090;-1.832;2024-01-11T04:11:58;102091.56;;;0.70;90.76
51849;BME280;38952;51.090;-1.832;2024-01-11T04:14:25;102100.69;;;0.77;90.78
51849;BME280;38952;51.090;-1.832;2024-01-11T04:16:50;102075.41;;;0.70;90.92
51849;BME280;38952;51.090;-1.832;2024-01-11T04:19:18;102079.47;;;0.74;90.75
51849;BME280;38952;51.090;-1.832;2024-01-11T04:21:44;102095.03;;;0.89;90.63
51849;BME280;38952;51.090;-1.832;2024-01-11T04:24:11;102089.66;;;0.89;90.01
51849;BME280;38952;51.090;-1.832;2024-01-11T04:26:37;102084.59;;;0.85;90.21
51849;BME280;38952;51.090;-1.832;2024-01-11T04:29:02;102089.66;;;0.89;89.99
51849;BME280;38952;51.090;-1.832;2024-01-11T04:31:28;102093.66;;;0.84;89.80
51849;BME280;38952;51.090;-1.832;2024-01-11T04:33:54;102091.72;;;0.68;90.37
51849;BME280;38952;51.090;-1.832;2024-01-11T04:36:19;102085.28;;;0.35;90.81
51849;BME280;38952;51.090;-1.832;2024-01-11T04:38:45;102089.81;;;0.08;91.22
51849;BME280;38952;51.090;-1.832;2024-01-11T04:41:14;102088.91;;;-0.19;91.64
51849;BME280;38952;51.090;-1.832;2024-01-11T04:43:42;102093.59;;;-0.39;92.23
51849;BME280;38952;51.090;-1.832;2024-01-11T04:46:17;102097.66;;;-0.52;92.61
51849;BME280;38952;51.090;-1.832;2024-01-11T04:48:43;102094.47;;;-0.66;93.29
51849;BME280;38952;51.090;-1.832;2024-01-11T04:51:09;102093.31;;;-0.81;93.86
51849;BME280;38952;51.090;-1.832;2024-01-11T04:53:42;102096.28;;;-0.84;93.48
51849;BME280;38952;51.090;-1.832;2024-01-11T04:56:10;102101.22;;;-0.80;93.59
51849;BME280;38952;51.090;-1.832;2024-01-11T04:58:36;102120.69;;;-0.78;93.64
51849;BME280;38952;51.090;-1.832;2024-01-11T05:01:04;102106.63;;;-0.90;94.29
51849;BME280;38952;51.090;-1.832;2024-01-11T05:03:30;102111.16;;;-0.90;94.62
51849;BME280;38952;51.090;-1.832;2024-01-11T05:05:55;102105.53;;;-0.97;94.97
51849;BME280;38952;51.090;-1.832;2024-01-11T05:08:21;102123.63;;;-0.99;94.45
51849;BME280;38952;51.090;-1.832;2024-01-11T05:10:46;102103.31;;;-1.11;94.38
51849;BME280;38952;51.090;-1.832;2024-01-11T05:13:11;102112.63;;;-1.06;95.42
51849;BME280;38952;51.090;-1.832;2024-01-11T05:15:37;102129.88;;;-1.08;94.80
51849;BME280;38952;51.090;-1.832;2024-01-11T05:18:03;102136.25;;;-1.09;94.81
51849;BME280;38952;51.090;-1.832;2024-01-11T05:20:28;102124.00;;;-1.21;94.78
51849;BME280;38952;51.090;-1.832;2024-01-11T05:22:54;102141.34;;;-1.06;94.81
51849;BME280;38952;51.090;-1.832;2024-01-11T05:25:20;102136.91;;;-0.97;95.53
51849;BME280;38952;51.090;-1.832;2024-01-11T05:27:45;102141.25;;;-0.86;94.80
51849;BME280;38952;51.090;-1.832;2024-01-11T05:30:11;102140.78;;;-0.82;94.91
51849;BME280;38952;51.090;-1.832;2024-01-11T05:32:37;102129.22;;;-0.82;95.14
51849;BME280;38952;51.090;-1.832;2024-01-11T05:35:03;102131.50;;;-0.88;94.82
51849;BME280;38952;51.090;-1.832;2024-01-11T05:37:28;102138.56;;;-0.86;95.42
51849;BME280;38952;51.090;-1.832;2024-01-11T05:39:54;102139.81;;;-0.81;95.37
51849;BME280;38952;51.090;-1.832;2024-01-11T05:42:22;102144.50;;;-0.83;94.46
51849;BME280;38952;51.090;-1.832;2024-01-11T05:44:48;102133.78;;;-0.93;94.88
51849;BME280;38952;51.090;-1.832;2024-01-11T05:47:13;102130.81;;;-0.99;95.24
51849;BME280;38952;51.090;-1.832;2024-01-11T05:49:40;102136.09;;;-1.08;96.20
51849;BME280;38952;51.090;-1.832;2024-01-11T05:52:05;102144.03;;;-1.06;95.95
51849;BME280;38952;51.090;-1.832;2024-01-11T05:54:31;102134.44;;;-1.18;95.93
51849;BME280;38952;51.090;-1.832;2024-01-11T05:56:56;102141.81;;;-1.20;95.80
51849;BME280;38952;51.090;-1.832;2024-01-11T05:59:24;102144.06;;;-1.26;96.31
51849;BME280;38952;51.090;-1.832;2024-01-11T06:01:49;102147.19;;;-1.30;96.48
51849;BME280;38952;51.090;-1.832;2024-01-11T06:04:15;102151.72;;;-1.31;96.58
51849;BME280;38952;51.090;-1.832;2024-01-11T06:06:40;102160.47;;;-1.29;97.77
51849;BME280;38952;51.090;-1.832;2024-01-11T06:09:06;102167.53;;;-1.28;96.88
51849;BME280;38952;51.090;-1.832;2024-01-11T06:11:32;102170.06;;;-1.26;97.33
51849;BME280;38952;51.090;-1.832;2024-01-11T06:13:58;102164.16;;;-1.30;98.01
51849;BME280;38952;51.090;-1.832;2024-01-11T06:16:23;102164.16;;;-1.30;97.47
51849;BME280;38952;51.090;-1.832;2024-01-11T06:18:50;102179.09;;;-1.17;97.74
51849;BME280;38952;51.090;-1.832;2024-01-11T06:21:15;102170.22;;;-1.28;98.13
51849;BME280;38952;51.090;-1.832;2024-01-11T06:23:43;102174.59;;;-1.27;97.61
51849;BME280;38952;51.090;-1.832;2024-01-11T06:26:08;102178.69;;;-1.23;98.00
51849;BME280;38952;51.090;-1.832;2024-01-11T06:28:34;102181.09;;;-1.19;98.87
51849;BME280;38952;51.090;-1.832;2024-01-11T06:31:02;102177.81;;;-1.23;98.44
51849;BME280;38952;51.090;-1.832;2024-01-11T06:33:28;102190.41;;;-1.24;99.10
51849;BME280;38952;51.090;-1.832;2024-01-11T06:35:54;102187.88;;;-1.25;98.54
51849;BME280;38952;51.090;-1.832;2024-01-11T06:38:19;102162.22;;;-1.47;99.01
51849;BME280;38952;51.090;-1.832;2024-01-11T06:40:45;102164.19;;;-1.49;99.76
51849;BME280;38952;51.090;-1.832;2024-01-11T06:43:11;102195.53;;;-1.40;99.38
51849;BME280;38952;51.090;-1.832;2024-01-11T06:45:36;102198.38;;;-1.42;99.91
51849;BME280;38952;51.090;-1.832;2024-01-11T06:48:02;102206.53;;;-1.43;100.00
51849;BME280;38952;51.090;-1.832;2024-01-11T06:50:27;102185.78;;;-1.51;99.95
51849;BME280;38952;51.090;-1.832;2024-01-11T06:52:53;102209.66;;;-1.38;100.00
51849;BME280;38952;51.090;-1.832;2024-01-11T06:55:19;102215.56;;;-1.34;100.00
51849;BME280;38952;51.090;-1.832;2024-01-11T06:57:47;102212.47;;;-1.39;100.00
51849;BME280;38952;51.090;-1.832;2024-01-11T07:00:13;102210.53;;;-1.47;100.00
51849;BME280;38952;51.090;-1.832;2024-01-11T07:02:39;102215.88;;;-1.47;100.00
51849;BME280;38952;51.090;-1.832;2024-01-11T07:05:05;102216.56;;;-1.55;100.00
51849;BME280;38952;51.090;-1.832;2024-01-11T07:07:33;102221.81;;;-1.53;100.00
51849;BME280;38952;51.090;-1.832;2024-01-11T07:09:59;102226.19;;;-1.52;100.00
51849;BME280;38952;51.090;-1.832;2024-01-11T07:12:24;102219.53;;;-1.58;100.00
51849;BME280;38952;51.090;-1.832;2024-01-11T07:14:51;102236.50;;;-1.58;100.00
51849;BME280;38952;51.090;-1.832;2024-01-11T07:17:16;102232.13;;;-1.59;100.00
51849;BME280;38952;51.090;-1.832;2024-01-11T07:19:43;102194.44;;;-1.86;100.00
51849;BME280;38952;51.090;-1.832;2024-01-11T07:22:11;102241.75;;;-1.56;100.00
51849;BME280;38952;51.090;-1.832;2024-01-11T07:24:37;102235.34;;;-1.55;100.00
51849;BME280;38952;51.090;-1.832;2024-01-11T07:27:06;102234.81;;;-1.59;100.00
51849;BME280;38952;51.090;-1.832;2024-01-11T07:29:36;102226.47;;;-1.75;100.00
51849;BME280;38952;51.090;-1.832;2024-01-11T07:32:01;102238.63;;;-1.81;100.00
51849;BME280;38952;51.090;-1.832;2024-01-11T07:40:49;102228.13;;;-2.03;100.00
51849;BME280;38952;51.090;-1.832;2024-01-11T07:43:17;102252.00;;;-1.90;100.00
51849;BME280;38952;51.090;-1.832;2024-01-11T07:45:42;102255.66;;;-1.91;100.00
51849;BME280;38952;51.090;-1.832;2024-01-11T07:48:08;102242.69;;;-1.96;100.00
51849;BME280;38952;51.090;-1.832;2024-01-11T07:50:33;102260.50;;;-1.85;100.00
51849;BME280;38952;51.090;-1.832;2024-01-11T07:53:01;102251.03;;;-1.89;100.00
51849;BME280;38952;51.090;-1.832;2024-01-11T07:55:32;102285.63;;;-1.67;100.00
51849;BME280;38952;51.090;-1.832;2024-01-11T07:58:20;102253.44;;;-1.86;100.00
51849;BME280;38952;51.090;-1.832;2024-01-11T08:01:09;102291.28;;;-1.60;100.00
51849;BME280;38952;51.090;-1.832;2024-01-11T08:03:38;102245.78;;;-1.81;100.00
51849;BME280;38952;51.090;-1.832;2024-01-11T08:06:16;102289.91;;;-1.54;100.00
51849;BME280;38952;51.090;-1.832;2024-01-11T08:08:59;102248.34;;;-1.80;100.00
51849;BME280;38952;51.090;-1.832;2024-01-11T08:11:29;102255.25;;;-1.77;100.00
51849;BME280;38952;51.090;-1.832;2024-01-11T08:14:16;102294.41;;;-1.45;100.00
51849;BME280;38952;51.090;-1.832;2024-01-11T08:17:05;102321.25;;;-1.35;100.00
51849;BME280;38952;51.090;-1.832;2024-01-11T08:19:59;102305.56;;;-1.40;100.00
51849;BME280;38952;51.090;-1.832;2024-01-11T08:22:31;102303.72;;;-1.39;100.00
51849;BME280;38952;51.090;-1.832;2024-01-11T08:25:09;102326.06;;;-1.19;100.00
51849;BME280;38952;51.090;-1.832;2024-01-11T08:27:44;102303.75;;;-1.30;100.00
51849;BME280;38952;51.090;-1.832;2024-01-11T08:33:13;102319.00;;;-1.11;100.00
51849;BME280;38952;51.090;-1.832;2024-01-11T08:35:48;102289.88;;;-1.25;100.00
51849;BME280;38952;51.090;-1.832;2024-01-11T08:38:16;102296.38;;;-1.18;100.00
51849;BME280;38952;51.090;-1.832;2024-01-11T08:40:57;102311.47;;;-1.07;100.00
51849;BME280;38952;51.090;-1.832;2024-01-11T08:43:49;102304.84;;;-1.03;100.00
51849;BME280;38952;51.090;-1.832;2024-01-11T08:46:28;102285.91;;;-1.11;100.00
51849;BME280;38952;51.090;-1.832;2024-01-11T08:48:56;102322.63;;;-0.82;100.00
51849;BME280;38952;51.090;-1.832;2024-01-11T08:51:29;102330.53;;;-0.71;100.00
51849;BME280;38952;51.090;-1.832;2024-01-11T08:53:55;102346.88;;;-0.55;100.00
51849;BME280;38952;51.090;-1.832;2024-01-11T08:56:22;102344.31;;;-0.46;100.00
51849;BME280;38952;51.090;-1.832;2024-01-11T08:59:13;102335.25;;;-0.45;100.00
51849;BME280;38952;51.090;-1.832;2024-01-11T09:02:08;102299.25;;;-0.62;100.00
51849;BME280;38952;51.090;-1.832;2024-01-11T09:04:39;102297.81;;;-0.57;100.00
51849;BME280;38952;51.090;-1.832;2024-01-11T09:07:10;102349.44;;;-0.15;100.00
51849;BME280;38952;51.090;-1.832;2024-01-11T09:10:05;102290.56;;;-0.46;100.00
51849;BME280;38952;51.090;-1.832;2024-01-11T09:12:31;102306.91;;;-0.30;100.00
51849;BME280;38952;51.090;-1.832;2024-01-11T09:15:15;102361.66;;;0.07;100.00
51849;BME280;38952;51.090;-1.832;2024-01-11T09:18:33;102309.81;;;-0.13;100.00
51849;BME280;38952;51.090;-1.832;2024-01-11T09:21:08;102328.56;;;0.06;100.00
51849;BME280;38952;51.090;-1.832;2024-01-11T09:24:10;102358.75;;;0.28;100.00
51849;BME280;38952;51.090;-1.832;2024-01-11T09:27:28;102374.91;;;0.46;100.00
51849;BME280;38952;51.090;-1.832;2024-01-11T09:30:19;102380.94;;;0.58;100.00
51849;BME280;38952;51.090;-1.832;2024-01-11T09:32:54;102381.41;;;0.71;100.00
51849;BME280;38952;51.090;-1.832;2024-01-11T09:35:59;102347.00;;;0.65;100.00
51849;BME280;38952;51.090;-1.832;2024-01-11T09:38:24;102376.47;;;1.20;100.00
51849;BME280;38952;51.090;-1.832;2024-01-11T09:41:20;102402.22;;;3.86;100.00
51849;BME280;38952;51.090;-1.832;2024-01-11T09:44:11;102403.63;;;8.91;82.01
51849;BME280;38952;51.090;-1.832;2024-01-11T09:46:43;102370.81;;;11.72;63.62
51849;BME280;38952;51.090;-1.832;2024-01-11T09:49:21;102399.44;;;14.24;53.98
51849;BME280;38952;51.090;-1.832;2024-01-11T09:52:26;102389.34;;;16.01;47.73
51849;BME280;38952;51.090;-1.832;2024-01-11T09:55:12;102374.09;;;17.52;43.85
51849;BME280;38952;51.090;-1.832;2024-01-11T09:57:41;102401.41;;;18.28;41.17
51849;BME280;38952;51.090;-1.832;2024-01-11T10:00:22;102417.19;;;19.12;39.00
51849;BME280;38952;51.090;-1.832;2024-01-11T10:02:49;102416.63;;;19.56;37.84
51849;BME280;38952;51.090;-1.832;2024-01-11T10:05:18;102428.13;;;20.35;35.93
51849;BME280;38952;51.090;-1.832;2024-01-11T10:07:44;102433.63;;;20.51;34.80
51849;BME280;38952;51.090;-1.832;2024-01-11T10:10:11;102424.13;;;20.67;33.34
51849;BME280;38952;51.090;-1.832;2024-01-11T10:12:37;102437.66;;;21.24;33.20
51849;BME280;38952;51.090;-1.832;2024-01-11T10:15:06;102453.84;;;21.86;32.45
51849;BME280;38952;51.090;-1.832;2024-01-11T10:17:44;102444.41;;;22.35;31.94
51849;BME280;38952;51.090;-1.832;2024-01-11T10:20:18;102425.88;;;23.07;30.71
51849;BME280;38952;51.090;-1.832;2024-01-11T10:22:49;102430.59;;;23.44;29.42
51849;BME280;38952;51.090;-1.832;2024-01-11T10:25:17;102422.44;;;24.64;28.90
51849;BME280;38952;51.090;-1.832;2024-01-11T10:27:44;102437.88;;;24.62;27.13
51849;BME280;38952;51.090;-1.832;2024-01-11T10:30:14;102417.97;;;25.00;27.06
51849;BME280;38952;51.090;-1.832;2024-01-11T10:33:02;102425.91;;;25.66;26.98
51849;BME280;38952;51.090;-1.832;2024-01-11T10:35:28;102419.09;;;25.89;25.76
51849;BME280;38952;51.090;-1.832;2024-01-11T10:38:01;102416.06;;;26.08;25.97
51849;BME280;38952;51.090;-1.832;2024-01-11T10:40:30;102402.75;;;25.91;24.81
51849;BME280;38952;51.090;-1.832;2024-01-11T10:42:59;102419.69;;;26.09;24.62
51849;BME280;38952;51.090;-1.832;2024-01-11T10:45:27;102422.31;;;26.72;24.29
51849;BME280;38952;51.090;-1.832;2024-01-11T10:47:55;102409.44;;;27.06;23.79
51849;BME280;38952;51.090;-1.832;2024-01-11T10:50:30;102403.53;;;26.98;22.60
51849;BME280;38952;51.090;-1.832;2024-01-11T10:56:14;102404.47;;;28.02;21.53
51849;BME280;38952;51.090;-1.832;2024-01-11T10:58:41;102429.44;;;28.85;22.15
51849;BME280;38952;51.090;-1.832;2024-01-11T11:01:11;102422.56;;;28.95;21.62
51849;BME280;38952;51.090;-1.832;2024-01-11T11:03:38;102426.00;;;29.00;20.98
51849;BME280;38952;51.090;-1.832;2024-01-11T11:06:05;102415.13;;;29.32;20.63
51849;BME280;38952;51.090;-1.832;2024-01-11T11:08:36;102421.81;;;29.86;20.07
51849;BME280;38952;51.090;-1.832;2024-01-11T11:11:04;102434.50;;;30.66;19.94
51849;BME280;38952;51.090;-1.832;2024-01-11T11:13:34;102416.75;;;31.06;19.76
51849;BME280;38952;51.090;-1.832;2024-01-11T11:16:02;102414.78;;;31.99;18.51
51849;BME280;38952;51.090;-1.832;2024-01-11T11:18:34;102414.59;;;32.24;18.38
51849;BME280;38952;51.090;-1.832;2024-01-11T11:21:10;102423.66;;;32.13;18.15
51849;BME280;38952;51.090;-1.832;2024-01-11T11:23:38;102396.53;;;31.48;18.49
51849;BME280;38952;51.090;-1.832;2024-01-11T11:26:14;102390.94;;;30.02;19.55
51849;BME280;38952;51.090;-1.832;2024-01-11T11:28:44;102415.38;;;28.04;20.85
51849;BME280;38952;51.090;-1.832;2024-01-11T11:31:43;102426.88;;;26.50;21.28
51849;BME280;38952;51.090;-1.832;2024-01-11T11:34:14;102421.00;;;24.39;23.77
51849;BME280;38952;51.090;-1.832;2024-01-11T11:37:00;102417.16;;;22.32;25.27
51849;BME280;38952;51.090;-1.832;2024-01-11T11:39:27;102379.59;;;22.87;26.31
51849;BME280;38952;51.090;-1.832;2024-01-11T11:41:55;102416.72;;;25.06;23.72
51849;BME280;38952;51.090;-1.832;2024-01-11T11:44:30;102409.06;;;24.98;22.75
51849;BME280;38952;51.090;-1.832;2024-01-11T11:54:11;102418.75;;;24.91;22.80
51849;BME280;38952;51.090;-1.832;2024-01-11T11:56:40;102419.56;;;24.14;23.71
51849;BME280;38952;51.090;-1.832;2024-01-11T11:59:09;102423.00;;;21.53;25.57
51849;BME280;38952;51.090;-1.832;2024-01-11T12:01:35;102404.31;;;18.75;28.16
51849;BME280;38952;51.090;-1.832;2024-01-11T12:04:00;102416.50;;;16.75;31.29
51849;BME280;38952;51.090;-1.832;2024-01-11T12:06:27;102401.41;;;15.95;33.10
51849;BME280;38952;51.090;-1.832;2024-01-11T12:08:54;102423.81;;;16.87;32.81
51849;BME280;38952;51.090;-1.832;2024-01-11T12:11:21;102402.00;;;17.45;32.66
51849;BME280;38952;51.090;-1.832;2024-01-11T12:13:48;102428.47;;;18.84;31.08
51849;BME280;38952;51.090;-1.832;2024-01-11T12:16:14;102424.31;;;20.21;28.45
51849;BME280;38952;51.090;-1.832;2024-01-11T12:18:40;102425.06;;;22.68;26.89
51849;BME280;38952;51.090;-1.832;2024-01-11T12:21:06;102443.78;;;23.25;25.32
51849;BME280;38952;51.090;-1.832;2024-01-11T12:23:33;102458.41;;;24.94;23.53
51849;BME280;38952;51.090;-1.832;2024-01-11T12:26:02;102449.16;;;26.55;21.90
51849;BME280;38952;51.090;-1.832;2024-01-11T12:28:31;102454.69;;;27.04;20.85
51849;BME280;38952;51.090;-1.832;2024-01-11T12:30:59;102446.25;;;26.95;21.70
51849;BME280;38952;51.090;-1.832;2024-01-11T12:33:26;102446.47;;;27.34;20.96
51849;BME280;38952;51.090;-1.832;2024-01-11T12:35:52;102428.28;;;24.90;22.32
51849;BME280;38952;51.090;-1.832;2024-01-11T12:38:17;102469.88;;;24.42;23.01
51849;BME280;38952;51.090;-1.832;2024-01-11T12:40:45;102452.78;;;25.07;22.75
51849;BME280;38952;51.090;-1.832;2024-01-11T12:43:11;102441.28;;;26.08;22.30
51849;BME280;38952;51.090;-1.832;2024-01-11T12:45:37;102456.69;;;28.03;20.11
51849;BME280;38952;51.090;-1.832;2024-01-11T12:48:03;102470.75;;;30.02;19.82
51849;BME280;38952;51.090;-1.832;2024-01-11T12:50:30;102465.53;;;31.47;17.13
51849;BME280;38952;51.090;-1.832;2024-01-11T12:53:16;102440.88;;;31.32;16.77
51849;BME280;38952;51.090;-1.832;2024-01-11T12:55:48;102440.94;;;29.80;16.99
51849;BME280;38952;51.090;-1.832;2024-01-11T12:58:19;102457.41;;;28.60;18.47
51849;BME280;38952;51.090;-1.832;2024-01-11T13:00:45;102444.97;;;27.93;19.09
51849;BME280;38952;51.090;-1.832;2024-01-11T13:03:18;102440.16;;;25.55;20.44
51849;BME280;38952;51.090;-1.832;2024-01-11T13:05:45;102435.41;;;23.25;23.11
51849;BME280;38952;51.090;-1.832;2024-01-11T13:08:13;102437.31;;;25.78;21.60
51849;BME280;38952;51.090;-1.832;2024-01-11T13:10:41;102442.34;;;27.87;20.17